sensor_id;sensor_type;location;lat;lon;timestamp;P1;durP1;ratioP1;P2;durP2;ratioP2
8702;SDS011;9002;42.708;23.186;2024-01-06T00:02:01;47.00;;;28.35;;
8702;SDS011;9002;42.708;23.186;2024-01-06T00:04:28;47.17;;;30.50;;
8702;SDS011;9002;42.708;23.186;2024-01-06T00:06:55;48.45;;;30.55;;
8702;SDS011;9002;42.708;23.186;2024-01-06T00:11:50;50.45;;;28.88;;
8702;SDS011;9002;42.708;23.186;2024-01-06T00:14:17;49.97;;;28.25;;
8702;SDS011;9002;42.708;23.186;2024-01-06T00:19:10;46.85;;;28.00;;
8702;SDS011;9002;42.708;23.186;2024-01-06T00:21:37;50.67;;;29.13;;
8702;SDS011;9002;42.708;23.186;2024-01-06T00:24:04;50.58;;;31.45;;
8702;SDS011;9002;42.708;23.186;2024-01-06T00:26:33;59.08;;;32.63;;
8702;SDS011;9002;42.708;23.186;2024-01-06T00:29:00;52.88;;;31.98;;
8702;SDS011;9002;42.708;23.186;2024-01-06T00:31:27;53.95;;;31.95;;
8702;SDS011;9002;42.708;23.186;2024-01-06T00:33:54;48.13;;;29.73;;
8702;SDS011;9002;42.708;23.186;2024-01-06T00:36:20;48.63;;;32.20;;
8702;SDS011;9002;42.708;23.186;2024-01-06T00:38:47;53.42;;;33.22;;
8702;SDS011;9002;42.708;23.186;2024-01-06T00:41:14;59.03;;;34.65;;
8702;SDS011;9002;42.708;23.186;2024-01-06T00:43:43;57.95;;;37.58;;
8702;SDS011;9002;42.708;23.186;2024-01-06T00:46:10;69.90;;;39.90;;
8702;SDS011;9002;42.708;23.186;2024-01-06T00:48:36;61.78;;;38.35;;
8702;SDS011;9002;42.708;23.186;2024-01-06T00:53:30;57.05;;;35.58;;
8702;SDS011;9002;42.708;23.186;2024-01-06T00:58:23;58.17;;;34.17;;
8702;SDS011;9002;42.708;23.186;2024-01-06T01:03:18;58.70;;;34.00;;
8702;SDS011;9002;42.708;23.186;2024-01-06T01:05:45;65.88;;;37.83;;
8702;SDS011;9002;42.708;23.186;2024-01-06T01:10:39;59.30;;;35.15;;
8702;SDS011;9002;42.708;23.186;2024-01-06T01:13:06;63.50;;;37.20;;
8702;SDS011;9002;42.708;23.186;2024-01-06T01:15:33;62.13;;;36.72;;
8702;SDS011;9002;42.708;23.186;2024-01-06T01:18:01;55.45;;;34.10;;
8702;SDS011;9002;42.708;23.186;2024-01-06T01:20:28;54.40;;;32.92;;
8702;SDS011;9002;42.708;23.186;2024-01-06T01:22:55;54.63;;;32.13;;
8702;SDS011;9002;42.708;23.186;2024-01-06T01:25:22;59.47;;;35.50;;
8702;SDS011;9002;42.708;23.186;2024-01-06T01:27:49;61.58;;;34.42;;
8702;SDS011;9002;42.708;23.186;2024-01-06T01:32:43;50.38;;;29.80;;
8702;SDS011;9002;42.708;23.186;2024-01-06T01:37:38;47.47;;;27.52;;
8702;SDS011;9002;42.708;23.186;2024-01-06T01:42:32;44.17;;;27.17;;
8702;SDS011;9002;42.708;23.186;2024-01-06T01:44:59;48.70;;;27.02;;
8702;SDS011;9002;42.708;23.186;2024-01-06T01:47:26;51.17;;;27.33;;
8702;SDS011;9002;42.708;23.186;2024-01-06T01:49:54;52.05;;;27.85;;
8702;SDS011;9002;42.708;23.186;2024-01-06T01:52:22;43.80;;;26.77;;
8702;SDS011;9002;42.708;23.186;2024-01-06T01:54:50;49.13;;;25.67;;
8702;SDS011;9002;42.708;23.186;2024-01-06T01:57:19;44.35;;;26.35;;
8702;SDS011;9002;42.708;23.186;2024-01-06T01:59:50;42.97;;;25.73;;
8702;SDS011;9002;42.708;23.186;2024-01-06T02:02:18;44.45;;;26.42;;
8702;SDS011;9002;42.708;23.186;2024-01-06T02:04:46;42.17;;;26.70;;
8702;SDS011;9002;42.708;23.186;2024-01-06T02:07:13;44.15;;;27.38;;
8702;SDS011;9002;42.708;23.186;2024-01-06T02:09:42;52.35;;;28.90;;
8702;SDS011;9002;42.708;23.186;2024-01-06T02:12:09;52.60;;;28.55;;
8702;SDS011;9002;42.708;23.186;2024-01-06T02:14:36;46.30;;;28.02;;
8702;SDS011;9002;42.708;23.186;2024-01-06T02:17:03;50.08;;;28.38;;
8702;SDS011;9002;42.708;23.186;2024-01-06T02:19:30;48.13;;;29.17;;
8702;SDS011;9002;42.708;23.186;2024-01-06T02:21:58;48.67;;;28.20;;
8702;SDS011;9002;42.708;23.186;2024-01-06T02:24:25;43.38;;;27.00;;
8702;SDS011;9002;42.708;23.186;2024-01-06T02:26:52;43.05;;;27.92;;
8702;SDS011;9002;42.708;23.186;2024-01-06T02:31:46;49.45;;;28.35;;
8702;SDS011;9002;42.708;23.186;2024-01-06T02:36:39;45.50;;;26.50;;
8702;SDS011;9002;42.708;23.186;2024-01-06T02:41:34;45.45;;;26.90;;
8702;SDS011;9002;42.708;23.186;2024-01-06T02:44:02;46.90;;;27.65;;
8702;SDS011;9002;42.708;23.186;2024-01-06T02:46:29;41.88;;;27.13;;
8702;SDS011;9002;42.708;23.186;2024-01-06T02:51:23;41.28;;;23.55;;
8702;SDS011;9002;42.708;23.186;2024-01-06T02:56:18;37.35;;;22.45;;
8702;SDS011;9002;42.708;23.186;2024-01-06T02:58:45;39.92;;;23.67;;
8702;SDS011;9002;42.708;23.186;2024-01-06T03:03:38;37.55;;;22.42;;
8702;SDS011;9002;42.708;23.186;2024-01-06T03:08:32;43.42;;;23.80;;
8702;SDS011;9002;42.708;23.186;2024-01-06T03:10:59;35.47;;;21.17;;
8702;SDS011;9002;42.708;23.186;2024-01-06T03:13:29;37.80;;;22.33;;
8702;SDS011;9002;42.708;23.186;2024-01-06T03:15:56;35.15;;;20.35;;
8702;SDS011;9002;42.708;23.186;2024-01-06T03:20:50;24.60;;;15.70;;
8702;SDS011;9002;42.708;23.186;2024-01-06T03:25:43;21.25;;;11.65;;
8702;SDS011;9002;42.708;23.186;2024-01-06T03:30:38;20.33;;;12.18;;
8702;SDS011;9002;42.708;23.186;2024-01-06T03:33:05;21.30;;;13.20;;
8702;SDS011;9002;42.708;23.186;2024-01-06T03:35:32;18.92;;;12.45;;
8702;SDS011;9002;42.708;23.186;2024-01-06T03:40:26;22.70;;;11.95;;
8702;SDS011;9002;42.708;23.186;2024-01-06T03:45:20;18.00;;;11.93;;
8702;SDS011;9002;42.708;23.186;2024-01-06T03:47:48;21.50;;;11.85;;
8702;SDS011;9002;42.708;23.186;2024-01-06T03:50:15;25.33;;;12.52;;
8702;SDS011;9002;42.708;23.186;2024-01-06T03:52:42;23.73;;;11.55;;
8702;SDS011;9002;42.708;23.186;2024-01-06T03:55:09;19.67;;;11.13;;
8702;SDS011;9002;42.708;23.186;2024-01-06T03:57:36;17.42;;;10.95;;
8702;SDS011;9002;42.708;23.186;2024-01-06T04:00:04;19.65;;;10.35;;
8702;SDS011;9002;42.708;23.186;2024-01-06T04:02:32;18.25;;;11.80;;
8702;SDS011;9002;42.708;23.186;2024-01-06T04:05:01;21.95;;;11.80;;
8702;SDS011;9002;42.708;23.186;2024-01-06T04:07:30;17.65;;;11.40;;
8702;SDS011;9002;42.708;23.186;2024-01-06T04:09:57;20.05;;;12.25;;
8702;SDS011;9002;42.708;23.186;2024-01-06T04:12:24;18.40;;;11.52;;
8702;SDS011;9002;42.708;23.186;2024-01-06T04:14:51;18.90;;;11.38;;
8702;SDS011;9002;42.708;23.186;2024-01-06T04:17:18;26.70;;;12.40;;
8702;SDS011;9002;42.708;23.186;2024-01-06T04:19:45;19.25;;;12.82;;
8702;SDS011;9002;42.708;23.186;2024-01-06T04:22:13;19.45;;;10.82;;
8702;SDS011;9002;42.708;23.186;2024-01-06T04:24:40;19.98;;;11.35;;
8702;SDS011;9002;42.708;23.186;2024-01-06T04:29:35;20.10;;;11.15;;
8702;SDS011;9002;42.708;23.186;2024-01-06T04:32:02;17.00;;;11.13;;
8702;SDS011;9002;42.708;23.186;2024-01-06T04:34:29;18.80;;;11.48;;
8702;SDS011;9002;42.708;23.186;2024-01-06T04:39:24;21.25;;;12.43;;
8702;SDS011;9002;42.708;23.186;2024-01-06T04:41:51;20.98;;;12.55;;
8702;SDS011;9002;42.708;23.186;2024-01-06T04:46:46;24.48;;;12.73;;
8702;SDS011;9002;42.708;23.186;2024-01-06T04:49:13;19.50;;;12.10;;
8702;SDS011;9002;42.708;23.186;2024-01-06T04:51:40;24.77;;;14.63;;
8702;SDS011;9002;42.708;23.186;2024-01-06T04:54:07;24.33;;;15.35;;
8702;SDS011;9002;42.708;23.186;2024-01-06T04:59:02;29.20;;;15.18;;
8702;SDS011;9002;42.708;23.186;2024-01-06T05:01:29;26.23;;;17.00;;
8702;SDS011;9002;42.708;23.186;2024-01-06T05:03:56;34.20;;;19.15;;
8702;SDS011;9002;42.708;23.186;2024-01-06T05:06:24;37.03;;;18.42;;
8702;SDS011;9002;42.708;23.186;2024-01-06T05:11:17;29.60;;;17.33;;
8702;SDS011;9002;42.708;23.186;2024-01-06T05:13:46;26.08;;;16.33;;
8702;SDS011;9002;42.708;23.186;2024-01-06T05:16:13;27.42;;;15.25;;
8702;SDS011;9002;42.708;23.186;2024-01-06T05:18:40;17.75;;;11.75;;
8702;SDS011;9002;42.708;23.186;2024-01-06T05:23:34;16.70;;;9.93;;
8702;SDS011;9002;42.708;23.186;2024-01-06T05:28:27;13.98;;;8.88;;
8702;SDS011;9002;42.708;23.186;2024-01-06T05:33:22;15.77;;;8.93;;
8702;SDS011;9002;42.708;23.186;2024-01-06T05:38:19;11.63;;;6.75;;
8702;SDS011;9002;42.708;23.186;2024-01-06T05:43:13;11.82;;;6.28;;
8702;SDS011;9002;42.708;23.186;2024-01-06T05:45:40;10.48;;;6.68;;
8702;SDS011;9002;42.708;23.186;2024-01-06T05:48:09;9.27;;;6.25;;
8702;SDS011;9002;42.708;23.186;2024-01-06T05:50:37;11.13;;;5.88;;
8702;SDS011;9002;42.708;23.186;2024-01-06T05:53:04;10.25;;;5.35;;
8702;SDS011;9002;42.708;23.186;2024-01-06T05:55:31;9.27;;;6.15;;
8702;SDS011;9002;42.708;23.186;2024-01-06T06:00:26;10.55;;;6.72;;
8702;SDS011;9002;42.708;23.186;2024-01-06T06:05:21;9.15;;;5.78;;
8702;SDS011;9002;42.708;23.186;2024-01-06T06:07:48;8.60;;;5.03;;
8702;SDS011;9002;42.708;23.186;2024-01-06T06:10:14;9.25;;;5.90;;
8702;SDS011;9002;42.708;23.186;2024-01-06T06:12:43;10.43;;;6.72;;
8702;SDS011;9002;42.708;23.186;2024-01-06T06:17:37;9.60;;;4.65;;
8702;SDS011;9002;42.708;23.186;2024-01-06T06:20:05;8.80;;;5.68;;
8702;SDS011;9002;42.708;23.186;2024-01-06T06:22:34;10.15;;;5.53;;
8702;SDS011;9002;42.708;23.186;2024-01-06T06:25:01;9.98;;;5.85;;
8702;SDS011;9002;42.708;23.186;2024-01-06T06:27:29;16.73;;;6.22;;
8702;SDS011;9002;42.708;23.186;2024-01-06T06:29:55;12.15;;;7.57;;
8702;SDS011;9002;42.708;23.186;2024-01-06T06:32:22;13.55;;;6.55;;
8702;SDS011;9002;42.708;23.186;2024-01-06T06:34:50;11.35;;;6.53;;
8702;SDS011;9002;42.708;23.186;2024-01-06T06:37:17;11.00;;;5.93;;
8702;SDS011;9002;42.708;23.186;2024-01-06T06:39:46;11.80;;;7.22;;
8702;SDS011;9002;42.708;23.186;2024-01-06T06:42:13;11.43;;;6.57;;
8702;SDS011;9002;42.708;23.186;2024-01-06T06:47:06;12.88;;;6.13;;
8702;SDS011;9002;42.708;23.186;2024-01-06T06:49:33;12.65;;;7.72;;
8702;SDS011;9002;42.708;23.186;2024-01-06T06:52:00;11.35;;;5.32;;
8702;SDS011;9002;42.708;23.186;2024-01-06T06:54:28;10.73;;;5.35;;
8702;SDS011;9002;42.708;23.186;2024-01-06T06:56:57;10.18;;;6.15;;
8702;SDS011;9002;42.708;23.186;2024-01-06T06:59:24;9.25;;;4.85;;
8702;SDS011;9002;42.708;23.186;2024-01-06T07:04:18;10.13;;;4.97;;
8702;SDS011;9002;42.708;23.186;2024-01-06T07:06:45;9.90;;;4.82;;
8702;SDS011;9002;42.708;23.186;2024-01-06T07:11:38;7.53;;;4.68;;
8702;SDS011;9002;42.708;23.186;2024-01-06T07:14:07;7.95;;;5.15;;
8702;SDS011;9002;42.708;23.186;2024-01-06T07:16:34;9.80;;;6.30;;
8702;SDS011;9002;42.708;23.186;2024-01-06T07:21:27;10.88;;;6.00;;
8702;SDS011;9002;42.708;23.186;2024-01-06T07:26:21;10.32;;;5.47;;
8702;SDS011;9002;42.708;23.186;2024-01-06T07:28:48;9.63;;;5.47;;
8702;SDS011;9002;42.708;23.186;2024-01-06T07:33:43;10.27;;;5.05;;
8702;SDS011;9002;42.708;23.186;2024-01-06T07:36:10;11.15;;;6.07;;
8702;SDS011;9002;42.708;23.186;2024-01-06T07:38:38;10.15;;;5.82;;
8702;SDS011;9002;42.708;23.186;2024-01-06T07:43:32;13.32;;;6.03;;
8702;SDS011;9002;42.708;23.186;2024-01-06T07:48:28;9.77;;;5.55;;
8702;SDS011;9002;42.708;23.186;2024-01-06T07:50:55;9.75;;;5.88;;
8702;SDS011;9002;42.708;23.186;2024-01-06T07:55:49;13.30;;;6.10;;
8702;SDS011;9002;42.708;23.186;2024-01-06T07:58:16;12.93;;;6.80;;
8702;SDS011;9002;42.708;23.186;2024-01-06T08:00:43;12.68;;;6.88;;
8702;SDS011;9002;42.708;23.186;2024-01-06T08:03:10;12.48;;;7.10;;
8702;SDS011;9002;42.708;23.186;2024-01-06T08:05:40;10.68;;;6.10;;
8702;SDS011;9002;42.708;23.186;2024-01-06T08:08:07;10.38;;;6.22;;
8702;SDS011;9002;42.708;23.186;2024-01-06T08:10:34;12.23;;;6.75;;
8702;SDS011;9002;42.708;23.186;2024-01-06T08:13:01;11.00;;;6.80;;
8702;SDS011;9002;42.708;23.186;2024-01-06T08:15:29;16.05;;;8.93;;
8702;SDS011;9002;42.708;23.186;2024-01-06T08:17:57;12.45;;;6.78;;
8702;SDS011;9002;42.708;23.186;2024-01-06T08:20:24;13.23;;;7.80;;
8702;SDS011;9002;42.708;23.186;2024-01-06T08:22:52;19.10;;;10.10;;
8702;SDS011;9002;42.708;23.186;2024-01-06T08:25:20;22.98;;;12.38;;
8702;SDS011;9002;42.708;23.186;2024-01-06T08:27:47;26.40;;;15.65;;
8702;SDS011;9002;42.708;23.186;2024-01-06T08:30:14;32.15;;;19.10;;
8702;SDS011;9002;42.708;23.186;2024-01-06T08:32:41;32.55;;;20.67;;
8702;SDS011;9002;42.708;23.186;2024-01-06T08:35:08;34.95;;;21.55;;
8702;SDS011;9002;42.708;23.186;2024-01-06T08:37:36;34.22;;;22.23;;
8702;SDS011;9002;42.708;23.186;2024-01-06T08:40:05;38.40;;;22.92;;
8702;SDS011;9002;42.708;23.186;2024-01-06T08:42:32;38.45;;;22.45;;
8702;SDS011;9002;42.708;23.186;2024-01-06T08:47:26;34.92;;;23.38;;
8702;SDS011;9002;42.708;23.186;2024-01-06T08:49:53;37.88;;;24.27;;
8702;SDS011;9002;42.708;23.186;2024-01-06T08:52:20;47.33;;;25.40;;
8702;SDS011;9002;42.708;23.186;2024-01-06T08:54:47;36.42;;;24.17;;
8702;SDS011;9002;42.708;23.186;2024-01-06T08:57:16;34.08;;;23.40;;
8702;SDS011;9002;42.708;23.186;2024-01-06T08:59:43;40.78;;;24.60;;
8702;SDS011;9002;42.708;23.186;2024-01-06T09:02:10;38.20;;;24.80;;
8702;SDS011;9002;42.708;23.186;2024-01-06T09:04:37;37.85;;;23.42;;
8702;SDS011;9002;42.708;23.186;2024-01-06T09:07:04;39.10;;;24.45;;
8702;SDS011;9002;42.708;23.186;2024-01-06T09:09:31;38.53;;;22.27;;
8702;SDS011;9002;42.708;23.186;2024-01-06T09:11:58;36.65;;;24.20;;
8702;SDS011;9002;42.708;23.186;2024-01-06T09:14:27;30.90;;;21.92;;
8702;SDS011;9002;42.708;23.186;2024-01-06T09:16:54;32.38;;;20.83;;
8702;SDS011;9002;42.708;23.186;2024-01-06T09:21:48;33.45;;;19.95;;
8702;SDS011;9002;42.708;23.186;2024-01-06T09:24:15;30.95;;;21.33;;
8702;SDS011;9002;42.708;23.186;2024-01-06T09:26:42;37.75;;;22.95;;
8702;SDS011;9002;42.708;23.186;2024-01-06T09:29:09;30.38;;;20.48;;
8702;SDS011;9002;42.708;23.186;2024-01-06T09:31:37;38.65;;;22.38;;
8702;SDS011;9002;42.708;23.186;2024-01-06T09:34:04;32.08;;;22.27;;
8702;SDS011;9002;42.708;23.186;2024-01-06T09:36:35;35.15;;;22.88;;
8702;SDS011;9002;42.708;23.186;2024-01-06T09:39:02;34.03;;;22.05;;
8702;SDS011;9002;42.708;23.186;2024-01-06T09:41:29;28.95;;;20.40;;
8702;SDS011;9002;42.708;23.186;2024-01-06T09:43:57;37.90;;;24.73;;
8702;SDS011;9002;42.708;23.186;2024-01-06T09:46:24;34.08;;;22.40;;
8702;SDS011;9002;42.708;23.186;2024-01-06T09:48:54;35.88;;;21.80;;
8702;SDS011;9002;42.708;23.186;2024-01-06T09:51:21;34.30;;;22.02;;
8702;SDS011;9002;42.708;23.186;2024-01-06T09:53:52;38.20;;;23.10;;
8702;SDS011;9002;42.708;23.186;2024-01-06T09:56:23;42.83;;;22.65;;
8702;SDS011;9002;42.708;23.186;2024-01-06T09:58:51;32.22;;;19.52;;
8702;SDS011;9002;42.708;23.186;2024-01-06T10:01:19;35.78;;;20.00;;
8702;SDS011;9002;42.708;23.186;2024-01-06T10:03:47;39.88;;;22.10;;
8702;SDS011;9002;42.708;23.186;2024-01-06T10:06:16;32.92;;;19.55;;
8702;SDS011;9002;42.708;23.186;2024-01-06T10:08:43;31.42;;;19.67;;
8702;SDS011;9002;42.708;23.186;2024-01-06T10:11:11;30.63;;;18.83;;
8702;SDS011;9002;42.708;23.186;2024-01-06T10:13:39;25.60;;;17.95;;
8702;SDS011;9002;42.708;23.186;2024-01-06T10:16:06;33.28;;;18.88;;
8702;SDS011;9002;42.708;23.186;2024-01-06T10:18:33;27.25;;;17.52;;
8702;SDS011;9002;42.708;23.186;2024-01-06T10:21:02;25.25;;;17.38;;
8702;SDS011;9002;42.708;23.186;2024-01-06T10:23:32;26.17;;;16.80;;
8702;SDS011;9002;42.708;23.186;2024-01-06T10:25:59;23.40;;;14.85;;
8702;SDS011;9002;42.708;23.186;2024-01-06T10:28:28;28.15;;;15.65;;
8702;SDS011;9002;42.708;23.186;2024-01-06T10:30:55;30.05;;;15.02;;
8702;SDS011;9002;42.708;23.186;2024-01-06T10:33:25;23.80;;;15.05;;
8702;SDS011;9002;42.708;23.186;2024-01-06T10:35:52;22.73;;;14.35;;
8702;SDS011;9002;42.708;23.186;2024-01-06T10:38:20;25.25;;;15.90;;
8702;SDS011;9002;42.708;23.186;2024-01-06T10:40:58;29.80;;;14.75;;
8702;SDS011;9002;42.708;23.186;2024-01-06T10:43:32;23.90;;;13.38;;
8702;SDS011;9002;42.708;23.186;2024-01-06T10:46:02;22.83;;;15.20;;
8702;SDS011;9002;42.708;23.186;2024-01-06T10:48:30;26.33;;;13.57;;
8702;SDS011;9002;42.708;23.186;2024-01-06T10:50:58;21.08;;;14.55;;
8702;SDS011;9002;42.708;23.186;2024-01-06T10:53:25;22.75;;;15.30;;
8702;SDS011;9002;42.708;23.186;2024-01-06T10:55:53;26.65;;;14.23;;
8702;SDS011;9002;42.708;23.186;2024-01-06T10:58:22;20.70;;;11.85;;
8702;SDS011;9002;42.708;23.186;2024-01-06T11:00:49;19.80;;;10.77;;
8702;SDS011;9002;42.708;23.186;2024-01-06T11:03:17;16.58;;;10.13;;
8702;SDS011;9002;42.708;23.186;2024-01-06T11:05:44;17.17;;;10.02;;
8702;SDS011;9002;42.708;23.186;2024-01-06T11:08:11;14.52;;;8.63;;
8702;SDS011;9002;42.708;23.186;2024-01-06T11:10:39;17.40;;;9.32;;
8702;SDS011;9002;42.708;23.186;2024-01-06T11:13:10;12.55;;;8.48;;
8702;SDS011;9002;42.708;23.186;2024-01-06T11:15:46;15.32;;;9.02;;
8702;SDS011;9002;42.708;23.186;2024-01-06T11:18:30;18.90;;;11.15;;
8702;SDS011;9002;42.708;23.186;2024-01-06T11:21:18;18.30;;;10.63;;
8702;SDS011;9002;42.708;23.186;2024-01-06T11:26:45;21.80;;;11.80;;
8702;SDS011;9002;42.708;23.186;2024-01-06T11:29:16;20.42;;;12.23;;
8702;SDS011;9002;42.708;23.186;2024-01-06T11:34:49;20.33;;;11.75;;
8702;SDS011;9002;42.708;23.186;2024-01-06T11:37:23;20.73;;;11.43;;
8702;SDS011;9002;42.708;23.186;2024-01-06T11:39:51;17.55;;;10.75;;
8702;SDS011;9002;42.708;23.186;2024-01-06T11:42:21;16.98;;;8.55;;
8702;SDS011;9002;42.708;23.186;2024-01-06T11:44:57;22.63;;;12.07;;
8702;SDS011;9002;42.708;23.186;2024-01-06T11:47:29;16.60;;;8.13;;
8702;SDS011;9002;42.708;23.186;2024-01-06T11:49:59;15.80;;;8.88;;
8702;SDS011;9002;42.708;23.186;2024-01-06T11:52:29;13.05;;;8.82;;
8702;SDS011;9002;42.708;23.186;2024-01-06T11:54:57;11.38;;;7.10;;
8702;SDS011;9002;42.708;23.186;2024-01-06T11:57:25;12.15;;;6.88;;
8702;SDS011;9002;42.708;23.186;2024-01-06T11:59:52;15.90;;;7.53;;
8702;SDS011;9002;42.708;23.186;2024-01-06T12:02:19;14.55;;;7.35;;
8702;SDS011;9002;42.708;23.186;2024-01-06T12:04:49;10.00;;;6.45;;
8702;SDS011;9002;42.708;23.186;2024-01-06T12:07:17;9.65;;;6.40;;
8702;SDS011;9002;42.708;23.186;2024-01-06T12:09:45;11.88;;;6.45;;
8702;SDS011;9002;42.708;23.186;2024-01-06T12:12:15;11.98;;;6.97;;
8702;SDS011;9002;42.708;23.186;2024-01-06T12:14:42;10.57;;;6.68;;
8702;SDS011;9002;42.708;23.186;2024-01-06T12:17:12;12.70;;;6.78;;
8702;SDS011;9002;42.708;23.186;2024-01-06T12:19:40;12.63;;;7.38;;
8702;SDS011;9002;42.708;23.186;2024-01-06T12:22:11;12.90;;;8.10;;
8702;SDS011;9002;42.708;23.186;2024-01-06T12:24:39;17.08;;;10.10;;
8702;SDS011;9002;42.708;23.186;2024-01-06T12:27:07;14.60;;;9.00;;
8702;SDS011;9002;42.708;23.186;2024-01-06T12:29:37;18.83;;;11.35;;
8702;SDS011;9002;42.708;23.186;2024-01-06T12:32:05;15.55;;;8.68;;
8702;SDS011;9002;42.708;23.186;2024-01-06T12:34:33;16.10;;;9.25;;
8702;SDS011;9002;42.708;23.186;2024-01-06T12:37:00;12.20;;;7.30;;
8702;SDS011;9002;42.708;23.186;2024-01-06T12:39:29;17.23;;;9.40;;
8702;SDS011;9002;42.708;23.186;2024-01-06T12:41:57;11.55;;;6.85;;
8702;SDS011;9002;42.708;23.186;2024-01-06T12:44:25;11.85;;;7.75;;
8702;SDS011;9002;42.708;23.186;2024-01-06T12:46:52;12.65;;;7.45;;
8702;SDS011;9002;42.708;23.186;2024-01-06T12:49:19;12.65;;;7.13;;
8702;SDS011;9002;42.708;23.186;2024-01-06T12:51:46;11.73;;;7.60;;
8702;SDS011;9002;42.708;23.186;2024-01-06T12:54:14;11.32;;;6.65;;
8702;SDS011;9002;42.708;23.186;2024-01-06T12:56:43;10.27;;;6.97;;
8702;SDS011;9002;42.708;23.186;2024-01-06T12:59:15;11.05;;;6.60;;
8702;SDS011;9002;42.708;23.186;2024-01-06T13:01:44;8.32;;;5.28;;
8702;SDS011;9002;42.708;23.186;2024-01-06T13:04:10;9.43;;;5.70;;
8702;SDS011;9002;42.708;23.186;2024-01-06T13:06:38;11.60;;;6.65;;
8702;SDS011;9002;42.708;23.186;2024-01-06T13:09:05;9.05;;;5.78;;
8702;SDS011;9002;42.708;23.186;2024-01-06T13:11:32;8.32;;;5.45;;
8702;SDS011;9002;42.708;23.186;2024-01-06T13:14:02;10.40;;;6.35;;
8702;SDS011;9002;42.708;23.186;2024-01-06T13:16:29;15.85;;;6.22;;
8702;SDS011;9002;42.708;23.186;2024-01-06T13:18:56;7.45;;;4.60;;
8702;SDS011;9002;42.708;23.186;2024-01-06T13:21:23;10.75;;;4.10;;
8702;SDS011;9002;42.708;23.186;2024-01-06T13:23:50;9.93;;;4.80;;
8702;SDS011;9002;42.708;23.186;2024-01-06T13:26:17;6.85;;;4.28;;
8702;SDS011;9002;42.708;23.186;2024-01-06T13:28:44;8.13;;;3.83;;
8702;SDS011;9002;42.708;23.186;2024-01-06T13:31:12;9.85;;;4.95;;
8702;SDS011;9002;42.708;23.186;2024-01-06T13:33:40;8.15;;;4.90;;
8702;SDS011;9002;42.708;23.186;2024-01-06T13:36:07;7.18;;;4.22;;
8702;SDS011;9002;42.708;23.186;2024-01-06T13:38:34;6.70;;;4.55;;
8702;SDS011;9002;42.708;23.186;2024-01-06T13:41:01;7.25;;;4.38;;
8702;SDS011;9002;42.708;23.186;2024-01-06T13:43:28;10.23;;;5.50;;
8702;SDS011;9002;42.708;23.186;2024-01-06T13:45:57;6.00;;;4.22;;
8702;SDS011;9002;42.708;23.186;2024-01-06T13:48:25;9.90;;;6.20;;
8702;SDS011;9002;42.708;23.186;2024-01-06T13:50:52;8.18;;;4.80;;
8702;SDS011;9002;42.708;23.186;2024-01-06T13:53:19;8.02;;;4.93;;
8702;SDS011;9002;42.708;23.186;2024-01-06T13:55:49;12.07;;;6.07;;
8702;SDS011;9002;42.708;23.186;2024-01-06T13:58:16;9.32;;;5.45;;
8702;SDS011;9002;42.708;23.186;2024-01-06T14:00:44;9.95;;;5.72;;
8702;SDS011;9002;42.708;23.186;2024-01-06T14:03:11;10.57;;;5.47;;
8702;SDS011;9002;42.708;23.186;2024-01-06T14:05:40;11.77;;;6.35;;
8702;SDS011;9002;42.708;23.186;2024-01-06T14:08:07;9.27;;;5.97;;
8702;SDS011;9002;42.708;23.186;2024-01-06T14:10:34;12.88;;;6.25;;
8702;SDS011;9002;42.708;23.186;2024-01-06T14:13:03;8.02;;;5.28;;
8702;SDS011;9002;42.708;23.186;2024-01-06T14:15:30;9.55;;;5.25;;
8702;SDS011;9002;42.708;23.186;2024-01-06T14:17:58;9.05;;;5.00;;
8702;SDS011;9002;42.708;23.186;2024-01-06T14:20:25;10.23;;;6.15;;
8702;SDS011;9002;42.708;23.186;2024-01-06T14:22:54;9.02;;;5.32;;
8702;SDS011;9002;42.708;23.186;2024-01-06T14:25:21;14.98;;;6.07;;
8702;SDS011;9002;42.708;23.186;2024-01-06T14:27:48;11.45;;;7.43;;
8702;SDS011;9002;42.708;23.186;2024-01-06T14:30:15;13.25;;;6.18;;
8702;SDS011;9002;42.708;23.186;2024-01-06T14:32:42;12.13;;;6.60;;
8702;SDS011;9002;42.708;23.186;2024-01-06T14:35:09;10.43;;;5.82;;
8702;SDS011;9002;42.708;23.186;2024-01-06T14:37:38;8.68;;;6.03;;
8702;SDS011;9002;42.708;23.186;2024-01-06T14:40:07;14.10;;;7.25;;
8702;SDS011;9002;42.708;23.186;2024-01-06T14:42:35;10.38;;;7.03;;
8702;SDS011;9002;42.708;23.186;2024-01-06T14:45:02;9.57;;;6.97;;
8702;SDS011;9002;42.708;23.186;2024-01-06T14:47:29;9.45;;;6.93;;
8702;SDS011;9002;42.708;23.186;2024-01-06T14:49:57;12.43;;;7.47;;
8702;SDS011;9002;42.708;23.186;2024-01-06T14:52:24;14.82;;;8.68;;
8702;SDS011;9002;42.708;23.186;2024-01-06T14:54:52;9.20;;;6.00;;
8702;SDS011;9002;42.708;23.186;2024-01-06T14:57:21;12.68;;;7.35;;
8702;SDS011;9002;42.708;23.186;2024-01-06T14:59:48;11.40;;;6.82;;
8702;SDS011;9002;42.708;23.186;2024-01-06T15:02:15;15.23;;;6.53;;
8702;SDS011;9002;42.708;23.186;2024-01-06T15:04:42;11.05;;;5.80;;
8702;SDS011;9002;42.708;23.186;2024-01-06T15:07:09;10.85;;;6.28;;
8702;SDS011;9002;42.708;23.186;2024-01-06T15:09:38;11.10;;;5.85;;
8702;SDS011;9002;42.708;23.186;2024-01-06T15:12:06;9.95;;;6.20;;
8702;SDS011;9002;42.708;23.186;2024-01-06T15:14:34;10.55;;;6.40;;
8702;SDS011;9002;42.708;23.186;2024-01-06T15:17:01;12.00;;;6.28;;
8702;SDS011;9002;42.708;23.186;2024-01-06T15:19:29;14.32;;;7.45;;
8702;SDS011;9002;42.708;23.186;2024-01-06T15:21:56;10.15;;;6.60;;
8702;SDS011;9002;42.708;23.186;2024-01-06T15:24:23;18.35;;;7.35;;
8702;SDS011;9002;42.708;23.186;2024-01-06T15:26:51;16.17;;;7.60;;
8702;SDS011;9002;42.708;23.186;2024-01-06T15:29:18;17.25;;;8.70;;
8702;SDS011;9002;42.708;23.186;2024-01-06T15:31:47;21.08;;;8.40;;
8702;SDS011;9002;42.708;23.186;2024-01-06T15:34:16;15.18;;;7.72;;
8702;SDS011;9002;42.708;23.186;2024-01-06T15:36:51;14.07;;;7.63;;
8702;SDS011;9002;42.708;23.186;2024-01-06T15:39:18;17.70;;;8.02;;
8702;SDS011;9002;42.708;23.186;2024-01-06T15:41:45;12.80;;;8.50;;
8702;SDS011;9002;42.708;23.186;2024-01-06T15:44:12;23.40;;;9.23;;
8702;SDS011;9002;42.708;23.186;2024-01-06T15:46:39;19.10;;;9.13;;
8702;SDS011;9002;42.708;23.186;2024-01-06T15:49:08;20.13;;;9.80;;
8702;SDS011;9002;42.708;23.186;2024-01-06T15:51:35;17.63;;;8.75;;
8702;SDS011;9002;42.708;23.186;2024-01-06T15:54:04;24.92;;;9.27;;
8702;SDS011;9002;42.708;23.186;2024-01-06T15:56:31;15.05;;;9.00;;
8702;SDS011;9002;42.708;23.186;2024-01-06T15:58:58;17.40;;;9.43;;
8702;SDS011;9002;42.708;23.186;2024-01-06T16:01:25;21.63;;;8.60;;
8702;SDS011;9002;42.708;23.186;2024-01-06T16:03:52;15.70;;;9.18;;
8702;SDS011;9002;42.708;23.186;2024-01-06T16:06:21;16.13;;;7.25;;
8702;SDS011;9002;42.708;23.186;2024-01-06T16:08:47;16.45;;;9.05;;
8702;SDS011;9002;42.708;23.186;2024-01-06T16:11:14;14.18;;;8.15;;
8702;SDS011;9002;42.708;23.186;2024-01-06T16:13:41;12.73;;;7.55;;
8702;SDS011;9002;42.708;23.186;2024-01-06T16:16:08;15.77;;;8.27;;
8702;SDS011;9002;42.708;23.186;2024-01-06T16:18:35;25.63;;;15.73;;
8702;SDS011;9002;42.708;23.186;2024-01-06T16:21:02;22.42;;;10.50;;
8702;SDS011;9002;42.708;23.186;2024-01-06T16:23:31;21.10;;;10.07;;
8702;SDS011;9002;42.708;23.186;2024-01-06T16:25:58;20.25;;;10.50;;
8702;SDS011;9002;42.708;23.186;2024-01-06T16:28:25;22.65;;;14.95;;
8702;SDS011;9002;42.708;23.186;2024-01-06T16:30:52;27.10;;;13.55;;
8702;SDS011;9002;42.708;23.186;2024-01-06T16:33:19;18.20;;;10.23;;
8702;SDS011;9002;42.708;23.186;2024-01-06T16:35:46;20.80;;;10.70;;
8702;SDS011;9002;42.708;23.186;2024-01-06T16:38:15;19.70;;;10.35;;
8702;SDS011;9002;42.708;23.186;2024-01-06T16:40:43;21.20;;;8.05;;
8702;SDS011;9002;42.708;23.186;2024-01-06T16:43:10;18.90;;;10.23;;